createdAt,value
2022-08-14T00:01:54.690Z,74303.00
2022-08-14T00:04:34.975Z,74263.97
2022-08-14T00:07:10.184Z,74290.69
2022-08-14T00:09:55.227Z,74274.25
2022-08-14T00:12:33.670Z,74282.47
2022-08-14T00:15:18.085Z,74288.63
2022-08-14T00:17:47.287Z,74307.13
2022-08-14T00:20:24.002Z,74303.00
2022-08-14T00:22:58.456Z,74298.91
2022-08-14T00:25:41.591Z,74309.16
2022-08-14T00:28:15.464Z,74307.13
2022-08-14T00:30:46.998Z,74319.44
2022-08-14T00:33:16.137Z,74292.75
2022-08-14T00:36:36.593Z,74286.56
2022-08-14T00:38:34.727Z,74286.56
2022-08-14T00:41:04.723Z,74294.78
2022-08-14T00:43:32.595Z,74298.91
2022-08-14T00:46:09.105Z,74290.69
2022-08-14T00:48:57.861Z,74288.63
2022-08-14T00:51:37.785Z,74294.78
2022-08-14T00:54:21.229Z,74294.78
2022-08-14T00:56:54.916Z,74290.69
2022-08-14T00:59:27.563Z,74305.06
2022-08-14T01:02:00.808Z,74311.22
2022-08-14T01:04:38.432Z,74298.91
2022-08-14T01:07:20.778Z,74315.34
2022-08-14T01:09:53.769Z,74296.84
2022-08-14T01:12:26.996Z,74290.69
2022-08-14T01:15:09.496Z,74288.63
2022-08-14T01:17:55.934Z,74296.84
2022-08-14T01:20:41.815Z,74298.91
2022-08-14T01:23:16.758Z,74315.34
2022-08-14T01:25:48.076Z,74294.78
2022-08-14T01:28:46.336Z,74288.63
2022-08-14T01:31:06.418Z,74278.34
2022-08-14T01:33:44.637Z,74288.63
2022-08-14T01:36:27.971Z,74290.69
2022-08-14T01:38:58.678Z,74280.41
2022-08-14T01:41:30.033Z,74276.31
2022-08-14T01:44:01.543Z,74280.41
2022-08-14T01:46:36.676Z,74278.34
2022-08-14T01:49:06.259Z,74278.34
2022-08-14T01:51:35.691Z,74278.34
2022-08-14T01:54:07.433Z,74270.16
2022-08-14T01:56:39.945Z,74257.81
2022-08-14T01:59:10.219Z,74270.16
2022-08-14T02:01:59.193Z,74270.16
2022-08-14T02:04:54.482Z,74282.47
2022-08-14T02:07:44.919Z,74274.25
2022-08-14T02:10:12.891Z,74286.56
2022-08-14T02:12:40.990Z,74282.47
2022-08-14T02:15:10.738Z,74286.56
2022-08-14T02:17:38.405Z,74290.69
2022-08-14T02:20:08.656Z,74286.56
2022-08-14T02:22:47.320Z,74282.47
2022-08-14T02:25:16.803Z,74307.13
2022-08-14T02:28:23.590Z,74303.00
2022-08-14T02:30:34.822Z,74311.22
2022-08-14T02:33:07.272Z,74307.13
2022-08-14T02:35:40.618Z,74319.44
2022-08-14T02:38:11.674Z,74313.28
2022-08-14T02:40:40.552Z,74319.44
2022-08-14T02:43:10.387Z,74321.50
2022-08-14T02:45:44.557Z,74311.22
2022-08-14T02:49:02.006Z,74313.28
2022-08-14T02:51:01.371Z,74315.34
2022-08-14T02:53:31.314Z,74319.44
2022-08-14T02:56:02.552Z,74319.44
2022-08-14T02:58:33.641Z,74303.00
2022-08-14T03:01:06.021Z,74319.44
2022-08-14T03:03:38.793Z,74307.13
2022-08-14T03:06:07.106Z,74315.34
2022-08-14T03:08:37.868Z,74309.16
2022-08-14T03:11:07.607Z,74294.78
2022-08-14T03:13:36.870Z,74282.47
2022-08-14T03:16:09.056Z,74278.34
2022-08-14T03:18:48.441Z,74274.25
2022-08-14T03:21:21.358Z,74261.94
2022-08-14T03:23:50.111Z,74257.81
2022-08-14T03:26:29.790Z,74249.59
2022-08-14T03:29:01.267Z,74268.09
2022-08-14T03:31:29.417Z,74274.25
2022-08-14T03:34:00.065Z,74274.25
2022-08-14T03:37:39.445Z,74276.31
2022-08-14T03:39:23.024Z,74255.75
2022-08-14T03:41:53.019Z,74253.72
2022-08-14T03:45:26.593Z,74235.22
2022-08-14T03:47:08.004Z,74241.38
2022-08-14T03:49:36.346Z,74220.84
2022-08-14T03:52:37.602Z,74200.28
2022-08-14T03:54:59.313Z,74179.75
2022-08-14T03:57:37.084Z,74177.69
2022-08-14T04:00:08.882Z,74167.44
2022-08-14T04:02:46.919Z,74167.44
2022-08-14T04:05:16.713Z,74167.44
2022-08-14T04:07:49.902Z,74169.47
2022-08-14T04:10:32.942Z,74157.16
2022-08-14T04:13:03.285Z,74146.88
2022-08-14T04:15:55.689Z,74134.56
2022-08-14T04:18:21.985Z,74128.41
2022-08-14T04:20:54.809Z,74130.44
2022-08-14T04:23:29.083Z,74134.56
2022-08-14T04:25:57.342Z,74111.97
2022-08-14T04:29:07.368Z,74126.34
2022-08-14T04:31:15.291Z,74114.03
2022-08-14T04:33:42.787Z,74111.97
2022-08-14T04:36:16.085Z,74118.13
2022-08-14T04:39:12.175Z,74105.81
2022-08-14T04:42:02.157Z,74114.03
2022-08-14T04:44:36.923Z,74095.53
2022-08-14T04:47:23.709Z,74101.69
2022-08-14T04:49:57.113Z,74114.03
2022-08-14T04:52:25.577Z,74107.84
2022-08-14T04:54:54.487Z,74089.38
2022-08-14T04:57:22.814Z,74085.25
2022-08-14T04:59:52.767Z,74085.25
2022-08-14T05:02:21.559Z,74081.16
2022-08-14T05:04:57.200Z,74093.47
2022-08-14T05:07:54.720Z,74081.16
2022-08-14T05:10:16.540Z,74072.94
2022-08-14T05:13:13.449Z,74072.94
2022-08-14T05:15:39.418Z,74056.50
2022-08-14T05:18:17.794Z,74046.22
2022-08-14T05:21:54.564Z,74027.75
2022-08-14T05:23:48.850Z,74040.06
2022-08-14T05:26:17.231Z,74023.63
2022-08-14T05:28:46.150Z,74017.47
2022-08-14T05:31:20.595Z,74005.16
2022-08-14T05:33:56.595Z,73996.94
2022-08-14T05:36:27.151Z,73996.94
2022-08-14T05:38:55.339Z,74003.09
2022-08-14T05:41:22.757Z,74003.09
2022-08-14T05:43:51.103Z,73980.50
2022-08-14T05:46:23.005Z,73970.22
2022-08-14T05:48:57.321Z,73968.19
2022-08-14T05:51:25.052Z,73962.00
2022-08-14T05:54:01.404Z,73962.00
2022-08-14T05:56:39.754Z,73953.78
2022-08-14T05:59:07.456Z,73953.78
2022-08-14T06:01:35.322Z,73945.59
2022-08-14T06:04:04.622Z,73941.47
2022-08-14T06:06:38.082Z,73925.03
2022-08-14T06:09:09.752Z,73900.38
2022-08-14T06:11:37.621Z,73871.63
2022-08-14T06:14:06.671Z,73838.78
2022-08-14T06:16:48.370Z,73842.88
2022-08-14T06:19:18.376Z,73801.78
2022-08-14T06:21:45.826Z,73777.16
2022-08-14T06:24:18.822Z,73777.16
2022-08-14T06:26:52.071Z,73744.28
2022-08-14T06:29:24.055Z,73731.97
2022-08-14T06:31:54.529Z,73721.69
2022-08-14T06:35:03.521Z,73707.31
2022-08-14T06:37:17.123Z,73690.88
2022-08-14T06:39:45.196Z,73690.88
2022-08-14T06:42:32.416Z,73672.41
2022-08-14T06:45:01.248Z,73662.13
2022-08-14T06:47:30.284Z,73649.81
2022-08-14T06:49:58.484Z,73649.81
2022-08-14T06:52:26.284Z,73653.91
2022-08-14T06:54:57.830Z,73643.63
2022-08-14T06:57:25.364Z,73625.16
2022-08-14T06:59:52.638Z,73637.47
2022-08-14T07:02:43.610Z,73616.94
2022-08-14T07:05:29.879Z,73612.84
2022-08-14T07:07:58.149Z,73631.31
2022-08-14T07:10:26.080Z,73596.41
2022-08-14T07:13:04.082Z,73592.28
2022-08-14T07:15:34.000Z,73575.88
2022-08-14T07:18:02.444Z,73526.56
2022-08-14T07:20:32.297Z,73506.03
2022-08-14T07:23:08.452Z,73493.72
2022-08-14T07:25:37.928Z,73497.81
2022-08-14T07:28:20.561Z,73479.34
2022-08-14T07:30:50.745Z,73452.63
2022-08-14T07:33:24.574Z,73479.34
2022-08-14T07:35:59.333Z,73485.50
2022-08-14T07:38:34.006Z,73497.81
2022-08-14T07:41:12.026Z,73477.28
2022-08-14T07:43:42.518Z,73473.16
2022-08-14T07:46:11.209Z,73440.31
2022-08-14T07:48:40.781Z,73477.28
2022-08-14T07:51:11.123Z,73462.91
2022-08-14T07:53:40.449Z,73452.63
2022-08-14T07:56:43.948Z,73428.00
2022-08-14T07:58:58.843Z,73419.78
2022-08-14T08:01:26.382Z,73407.44
2022-08-14T08:03:59.444Z,73393.06
2022-08-14T08:06:27.659Z,73395.13
2022-08-14T08:09:01.270Z,73362.28
2022-08-14T08:11:34.767Z,73382.81
2022-08-14T08:14:10.414Z,73384.84
2022-08-14T08:16:44.065Z,73378.69
2022-08-14T08:19:12.582Z,73399.22
2022-08-14T08:21:43.720Z,73419.78
2022-08-14T08:24:11.270Z,73395.13
2022-08-14T08:26:42.457Z,73403.34
2022-08-14T08:29:09.759Z,73391.03
2022-08-14T08:31:52.197Z,73378.69
2022-08-14T08:34:19.859Z,73327.34
2022-08-14T08:36:51.104Z,73288.34
2022-08-14T08:39:22.922Z,73263.69
2022-08-14T08:41:53.813Z,73249.31
2022-08-14T08:44:32.094Z,73230.84
2022-08-14T08:47:06.242Z,73226.72
2022-08-14T08:49:43.280Z,73239.03
2022-08-14T08:52:25.488Z,73220.56
2022-08-14T08:55:01.105Z,73214.41
2022-08-14T08:57:37.578Z,73243.16
2022-08-14T09:00:24.432Z,73251.38
2022-08-14T09:03:15.712Z,73226.72
2022-08-14T09:05:54.453Z,73148.69
2022-08-14T09:08:32.718Z,73091.19
2022-08-14T09:11:19.718Z,73097.34
2022-08-14T09:13:53.418Z,73103.50
2022-08-14T09:16:25.333Z,73039.84
2022-08-14T09:18:54.855Z,72998.78
2022-08-14T09:21:24.315Z,72996.72
2022-08-14T09:24:29.353Z,72951.53
2022-08-14T09:26:49.232Z,72916.63
2022-08-14T09:29:17.645Z,72902.25
2022-08-14T09:31:53.258Z,72832.44
2022-08-14T09:34:28.022Z,72746.19
2022-08-14T09:37:19.399Z,72557.28
2022-08-14T09:40:10.149Z,72401.25
2022-08-14T09:42:51.267Z,72351.97
2022-08-14T09:45:21.032Z,72565.50
2022-08-14T09:47:55.002Z,72688.72
2022-08-14T09:50:31.334Z,72577.81
2022-08-14T09:53:05.045Z,72491.59
2022-08-14T09:55:42.564Z,72466.94
2022-08-14T09:58:19.476Z,72557.28
2022-08-14T10:01:01.665Z,72573.72
2022-08-14T10:03:35.527Z,72627.09
2022-08-14T10:06:09.010Z,72458.75
2022-08-14T10:08:51.145Z,72419.72
2022-08-14T10:11:23.168Z,72487.47
2022-08-14T10:13:56.018Z,72651.75
2022-08-14T10:16:33.342Z,72561.41
2022-08-14T10:19:04.806Z,72407.41
2022-08-14T10:21:38.989Z,72286.28
2022-08-14T10:24:36.298Z,72175.41
2022-08-14T10:27:05.370Z,72031.69
2022-08-14T10:29:38.533Z,72060.44
2022-08-14T10:32:18.166Z,72113.81
2022-08-14T10:35:13.491Z,72200.03
2022-08-14T10:37:48.177Z,72284.22
2022-08-14T10:40:37.327Z,72239.06
2022-08-14T10:43:17.867Z,72245.22
2022-08-14T10:46:03.742Z,72257.53
2022-08-14T10:48:45.683Z,72187.72
2022-08-14T10:51:24.927Z,72109.72
2022-08-14T10:53:56.899Z,72167.19
2022-08-14T10:56:34.953Z,72148.72
2022-08-14T10:59:03.086Z,72113.81
2022-08-14T11:01:32.389Z,72210.31
2022-08-14T11:04:01.023Z,72245.22
2022-08-14T11:06:31.395Z,72208.25
2022-08-14T11:08:58.710Z,72308.84
2022-08-14T11:11:37.098Z,72415.63
2022-08-14T11:14:09.433Z,72512.13
2022-08-14T11:16:53.393Z,72503.91
2022-08-14T11:19:21.654Z,72487.47
2022-08-14T11:21:55.435Z,72438.22
2022-08-14T11:24:54.965Z,72495.69
2022-08-14T11:27:11.427Z,72573.72
2022-08-14T11:29:38.982Z,72709.25
2022-08-14T11:32:06.907Z,72783.16
2022-08-14T11:34:38.003Z,72770.84
2022-08-14T11:37:22.931Z,72709.25
2022-08-14T11:39:54.738Z,72602.47
2022-08-14T11:42:56.961Z,72596.31
2022-08-14T11:45:18.559Z,72623.00
2022-08-14T11:48:13.292Z,72649.69
2022-08-14T11:50:37.342Z,72692.81
2022-08-14T11:53:07.065Z,72664.06
2022-08-14T11:55:39.366Z,72668.16
2022-08-14T11:58:09.599Z,72612.72
2022-08-14T12:00:55.086Z,72425.88
2022-08-14T12:03:37.380Z,72245.22
2022-08-14T12:06:29.185Z,72298.59
2022-08-14T12:09:00.673Z,72323.22
2022-08-14T12:11:38.340Z,72333.50
2022-08-14T12:14:29.088Z,72319.13
2022-08-14T12:16:59.860Z,72366.34
2022-08-14T12:19:33.552Z,72452.56
2022-08-14T12:22:02.887Z,72614.78
2022-08-14T12:24:36.822Z,72647.63
2022-08-14T12:27:07.492Z,72725.66
2022-08-14T12:29:34.996Z,72760.56
2022-08-14T12:32:06.680Z,72721.56
2022-08-14T12:34:37.470Z,72770.84
2022-08-14T12:37:08.963Z,72783.16
2022-08-14T12:39:40.445Z,72768.78
2022-08-14T12:42:08.305Z,72750.31
2022-08-14T12:44:39.943Z,72651.75
2022-08-14T12:47:17.647Z,72657.91
2022-08-14T12:49:52.983Z,72627.09
2022-08-14T12:52:41.741Z,72590.16
2022-08-14T12:55:18.586Z,72538.81
2022-08-14T12:57:49.461Z,72602.47
2022-08-14T13:00:24.697Z,72696.91
2022-08-14T13:02:55.001Z,72783.16
2022-08-14T13:05:24.600Z,72801.63
2022-08-14T13:07:55.386Z,72844.75
2022-08-14T13:10:47.131Z,72848.88
2022-08-14T13:13:15.415Z,72873.50
2022-08-14T13:15:45.431Z,72855.03
2022-08-14T13:18:17.293Z,72902.25
2022-08-14T13:20:51.415Z,72902.25
2022-08-14T13:23:30.666Z,72910.47
2022-08-14T13:26:00.310Z,72931.00
2022-08-14T13:28:33.623Z,72980.28
2022-08-14T13:31:10.930Z,72959.75
2022-08-14T13:33:40.893Z,72955.66
2022-08-14T13:36:24.333Z,72972.06
2022-08-14T13:38:59.974Z,72898.16
2022-08-14T13:41:31.693Z,72787.28
2022-08-14T13:44:03.943Z,72623.00
2022-08-14T13:46:31.568Z,72542.91
2022-08-14T13:48:59.959Z,72485.44
2022-08-14T13:51:27.472Z,72386.88
2022-08-14T13:54:10.593Z,72302.69
2022-08-14T13:56:39.807Z,72360.19
2022-08-14T13:59:07.223Z,72380.72
2022-08-14T14:01:42.963Z,72520.34
2022-08-14T14:04:18.872Z,72565.50
2022-08-14T14:06:49.113Z,72639.44
2022-08-14T14:09:21.403Z,72729.78
2022-08-14T14:11:53.015Z,72746.19
2022-08-14T14:14:29.731Z,72725.66
2022-08-14T14:17:11.817Z,72832.44
2022-08-14T14:19:41.405Z,72924.84
2022-08-14T14:22:09.784Z,72959.75
2022-08-14T14:24:40.150Z,72957.69
2022-08-14T14:27:39.605Z,72931.00
2022-08-14T14:29:59.232Z,72933.06
2022-08-14T14:32:32.026Z,72828.34
2022-08-14T14:35:01.756Z,72729.78
2022-08-14T14:37:29.845Z,72701.03
2022-08-14T14:40:53.461Z,72639.44
2022-08-14T14:42:53.245Z,72795.47
2022-08-14T14:45:22.406Z,72844.75
2022-08-14T14:47:58.910Z,72846.81
2022-08-14T14:50:26.847Z,72914.59
2022-08-14T14:53:12.468Z,72918.69
2022-08-14T14:55:54.234Z,72984.41
2022-08-14T14:58:30.011Z,72963.88
2022-08-14T15:01:00.667Z,72984.41
2022-08-14T15:03:30.479Z,72982.34
2022-08-14T15:05:58.143Z,72976.19
2022-08-14T15:08:26.642Z,72994.66
2022-08-14T15:11:13.920Z,72986.44
2022-08-14T15:13:43.087Z,73013.16
2022-08-14T15:16:11.501Z,73017.25
2022-08-14T15:18:46.840Z,73000.81
2022-08-14T15:21:16.540Z,73021.38
2022-08-14T15:23:45.019Z,73029.56
2022-08-14T15:26:27.702Z,73041.91
2022-08-14T15:29:03.308Z,73066.53
2022-08-14T15:31:34.995Z,73078.88
2022-08-14T15:34:45.928Z,73099.41
2022-08-14T15:37:06.157Z,73136.38
2022-08-14T15:39:38.708Z,73156.91
2022-08-14T15:42:14.905Z,73185.66
2022-08-14T15:44:57.909Z,73177.44
2022-08-14T15:47:32.406Z,73220.56
2022-08-14T15:50:02.899Z,73222.63
2022-08-14T15:52:37.187Z,73234.94
2022-08-14T15:55:09.886Z,73234.94
2022-08-14T15:58:02.105Z,73243.16
2022-08-14T16:00:49.393Z,73259.59
2022-08-14T16:03:27.967Z,73276.00
2022-08-14T16:06:10.824Z,73294.50
2022-08-14T16:08:43.549Z,73308.88
2022-08-14T16:11:11.338Z,73308.88
2022-08-14T16:13:43.398Z,73308.88
2022-08-14T16:16:47.628Z,73321.19
2022-08-14T16:19:11.084Z,73347.88
2022-08-14T16:22:01.268Z,73349.94
2022-08-14T16:24:33.447Z,73370.47
2022-08-14T16:27:01.678Z,73362.28
2022-08-14T16:29:34.563Z,73370.47
2022-08-14T16:32:32.821Z,73366.38
2022-08-14T16:34:54.882Z,73366.38
2022-08-14T16:37:23.235Z,73395.13
2022-08-14T16:39:58.459Z,73388.97
2022-08-14T16:43:02.648Z,73411.56
2022-08-14T16:45:18.659Z,73409.50
2022-08-14T16:47:47.813Z,73405.41
2022-08-14T16:50:40.678Z,73415.66
2022-08-14T16:53:07.194Z,73428.00
2022-08-14T16:55:53.790Z,73434.16
2022-08-14T16:58:29.960Z,73425.94
2022-08-14T17:01:22.662Z,73432.09
2022-08-14T17:03:56.716Z,73436.19
2022-08-14T17:06:43.020Z,73448.53
2022-08-14T17:09:43.437Z,73460.84
2022-08-14T17:12:33.526Z,73456.75
2022-08-14T17:15:10.793Z,73464.97
2022-08-14T17:17:38.858Z,73469.06
2022-08-14T17:20:30.996Z,73473.16
2022-08-14T17:22:58.582Z,73479.34
2022-08-14T17:25:30.108Z,73485.50
2022-08-14T17:28:51.888Z,73497.81
2022-08-14T17:31:08.497Z,73501.94
2022-08-14T17:33:40.859Z,73510.13
2022-08-14T17:36:21.405Z,73503.97
2022-08-14T17:38:59.699Z,73543.00
2022-08-14T17:41:32.881Z,73547.09
2022-08-14T17:44:13.418Z,73559.44
2022-08-14T17:46:55.166Z,73555.31
2022-08-14T17:49:32.170Z,73555.31
2022-08-14T17:52:16.977Z,73559.44
2022-08-14T17:54:52.626Z,73563.53
2022-08-14T17:57:26.263Z,73567.66
2022-08-14T17:59:56.989Z,73563.53
2022-08-14T18:02:31.245Z,73584.06
2022-08-14T18:05:00.152Z,73567.66
2022-08-14T18:07:59.248Z,73575.88
2022-08-14T18:10:52.917Z,73579.97
2022-08-14T18:13:10.583Z,73592.28
2022-08-14T18:15:41.467Z,73592.28
2022-08-14T18:18:11.826Z,73600.50
2022-08-14T18:21:25.722Z,73623.09
2022-08-14T18:23:28.279Z,73612.84
2022-08-14T18:25:55.894Z,73608.72
2022-08-14T18:28:32.203Z,73631.31
2022-08-14T18:31:22.753Z,73637.47
2022-08-14T18:33:56.438Z,73635.44
2022-08-14T18:36:56.722Z,73629.25
2022-08-14T18:39:34.777Z,73623.09
2022-08-14T18:42:23.738Z,73625.16
2022-08-14T18:44:52.648Z,73621.06
2022-08-14T18:47:21.930Z,73627.22
2022-08-14T18:49:55.727Z,73614.88
2022-08-14T18:52:39.912Z,73608.72
2022-08-14T18:55:15.977Z,73612.84
2022-08-14T18:58:02.711Z,73645.69
2022-08-14T19:00:33.869Z,73633.38
2022-08-14T19:03:03.478Z,73637.47
2022-08-14T19:05:47.311Z,73629.25
2022-08-14T19:08:18.512Z,73633.38
2022-08-14T19:10:50.200Z,73645.69
2022-08-14T19:13:48.058Z,73645.69
2022-08-14T19:16:23.070Z,73653.91
2022-08-14T19:19:00.250Z,73649.81
2022-08-14T19:21:35.644Z,73653.91
2022-08-14T19:24:30.302Z,73653.91
2022-08-14T19:27:24.619Z,73651.84
2022-08-14T19:30:19.760Z,73666.22
2022-08-14T19:32:55.735Z,73678.56
2022-08-14T19:35:49.315Z,73680.63
2022-08-14T19:38:45.173Z,73666.22
2022-08-14T19:41:15.265Z,73682.66
2022-08-14T19:43:55.505Z,73674.44
2022-08-14T19:46:33.383Z,73699.09
2022-08-14T19:49:07.265Z,73695.00
2022-08-14T19:51:46.278Z,73709.38
2022-08-14T19:54:16.444Z,73699.09
2022-08-14T19:56:45.046Z,73699.09
2022-08-14T19:59:17.633Z,73690.88
2022-08-14T20:01:45.450Z,73695.00
2022-08-14T20:04:46.022Z,73695.00
2022-08-14T20:07:06.305Z,73699.09
2022-08-14T20:11:05.758Z,73711.41
2022-08-14T20:12:35.397Z,73723.75
2022-08-14T20:15:08.747Z,73723.75
2022-08-14T20:17:40.789Z,73703.22
2022-08-14T20:20:20.964Z,73707.31
2022-08-14T20:23:11.507Z,73711.41
2022-08-14T20:25:45.594Z,73707.31
2022-08-14T20:28:30.745Z,73719.63
2022-08-14T20:31:17.788Z,73713.47
2022-08-14T20:34:06.114Z,73711.41
2022-08-14T20:36:40.658Z,73723.75
2022-08-14T20:39:15.052Z,73723.75
2022-08-14T20:41:51.504Z,73736.06
2022-08-14T20:44:41.218Z,73736.06
2022-08-14T20:47:15.026Z,73729.91
2022-08-14T20:49:42.445Z,73752.50
2022-08-14T20:52:18.758Z,73764.81
2022-08-14T20:54:51.632Z,73756.59
2022-08-14T20:57:19.373Z,73748.38
2022-08-14T20:59:53.077Z,73758.66
2022-08-14T21:02:34.534Z,73764.81
2022-08-14T21:05:17.253Z,73756.59
2022-08-14T21:07:50.254Z,73760.72
2022-08-14T21:10:33.602Z,73764.81
2022-08-14T21:13:13.963Z,73766.88
2022-08-14T21:15:56.831Z,73777.16
2022-08-14T21:18:30.528Z,73787.41
2022-08-14T21:21:00.082Z,73789.47
2022-08-14T21:23:32.873Z,73789.47
2022-08-14T21:26:00.438Z,73789.47
2022-08-14T21:28:30.695Z,73793.59
2022-08-14T21:31:04.427Z,73793.59
2022-08-14T21:33:34.403Z,73781.25
2022-08-14T21:36:07.610Z,73820.28
2022-08-14T21:38:38.152Z,73807.97
2022-08-14T21:41:41.947Z,73824.38
2022-08-14T21:44:18.066Z,73820.28
2022-08-14T21:46:53.361Z,73812.06
2022-08-14T21:49:35.951Z,73822.34
2022-08-14T21:52:50.950Z,73826.44
2022-08-14T21:55:08.702Z,73818.22
2022-08-14T21:58:44.494Z,73805.91
2022-08-14T22:00:39.496Z,73801.78
2022-08-14T22:03:17.040Z,73810.00
2022-08-14T22:05:46.368Z,73801.78
2022-08-14T22:08:14.378Z,73810.00
2022-08-14T22:10:46.781Z,73799.75
2022-08-14T22:13:19.480Z,73814.13
2022-08-14T22:15:50.117Z,73810.00
2022-08-14T22:18:21.152Z,73818.22
2022-08-14T22:20:53.949Z,73816.19
2022-08-14T22:23:24.159Z,73814.13
2022-08-14T22:25:52.336Z,73822.34
2022-08-14T22:28:22.645Z,73822.34
2022-08-14T22:30:55.137Z,73805.91
2022-08-14T22:33:31.254Z,73818.22
2022-08-14T22:36:00.269Z,73805.91
2022-08-14T22:38:35.706Z,73810.00
2022-08-14T22:41:29.269Z,73818.22
2022-08-14T22:43:54.581Z,73826.44
2022-08-14T22:46:22.115Z,73818.22
2022-08-14T22:48:51.254Z,73814.13
2022-08-14T22:51:20.390Z,73814.13
2022-08-14T22:53:48.646Z,73826.44
2022-08-14T22:56:21.881Z,73822.34
2022-08-14T22:58:54.310Z,73830.56
2022-08-14T23:01:56.445Z,73834.66
2022-08-14T23:04:35.080Z,73830.56
2022-08-14T23:07:21.945Z,73842.88
2022-08-14T23:09:56.211Z,73851.09
2022-08-14T23:12:29.683Z,73859.31
2022-08-14T23:15:00.248Z,73853.16
2022-08-14T23:17:39.411Z,73851.09
2022-08-14T23:20:19.146Z,73851.09
2022-08-14T23:22:51.546Z,73855.19
2022-08-14T23:25:20.127Z,73871.63
2022-08-14T23:28:33.634Z,73867.53
2022-08-14T23:30:55.395Z,73871.63
2022-08-14T23:33:22.762Z,73877.78
2022-08-14T23:35:58.683Z,73863.41
2022-08-14T23:38:30.737Z,73863.41
2022-08-14T23:41:03.218Z,73873.69
2022-08-14T23:43:32.474Z,73896.28
2022-08-14T23:46:00.752Z,73896.28
2022-08-14T23:48:29.252Z,73900.38
2022-08-14T23:50:56.809Z,73908.59
2022-08-14T23:53:47.879Z,73912.72
2022-08-14T23:56:32.090Z,73912.72
2022-08-14T23:59:01.093Z,73910.66
